• Join FlightAware (Why Join?)
  • Login
  • US Flag 
08:42AM EDT


 

Airport Tracker/Info


-or-


 

Live Flight TrackerFlight Track Log ✈ UAL582 ✈ 30-Oct-2013 ✈ CYYZ - KORD

Flight Track Log - Related Links

Times and Time Zones

All times are in EDT time to prevent confusion due to time zone crossing. See the UAL582 flight status page for this flight to view local times or setup timezone preferences in your user account.

Time Position Orientation Groundspeed Altitude Reporting Facility
EDT Latitude Longitude Course Direction KTS MPH feet Rate Location/Type
05:18PM 43.6500 -79.6833 235° Southwest 170 196 2,500  Level Toronto Center
05:19PM 43.6167 -79.7500 235° Southwest 230 265 4,500 2,160 Climbing Toronto Center
05:20PM 43.6333 -79.8333 285° West 260 299 6,900 1,380 Climbing Toronto Center
05:21PM 43.6500 -79.9333 283° West 260 299 7,300 1,920 Climbing Toronto Center
05:22PM 43.6667 -80.0167 285° West 260 299 10,800 2,160 Climbing Toronto Center
05:23PM 43.6833 -80.1667 279° West 300 345 11,700 1,920 Climbing Toronto Center
05:24PM 43.7000 -80.2833 281° West 340 391 14,700 2,580 Climbing Toronto Center
05:25PM 43.7167 -80.4167 280° West 360 414 16,900 2,220 Climbing Toronto Center
05:26PM 43.7333 -80.5500 280° West 370 426 19,200 1,920 Climbing Toronto Center
05:27PM 43.7000 -80.7000 253° West 390 449 20,800 1,860 Climbing Toronto Center
05:28PM 43.6667 -80.8500 253° West 390 449 23,000 1,080 Climbing Toronto Center
05:29PM 43.6333 -81.0000 253° West 400 460 23,000 300 Level Toronto Center
05:30PM 43.6000 -81.1500 253° West 410 472 23,600 1,200 Climbing Toronto Center
05:31PM 43.5667 -81.2833 251° West 420 483 25,500 1,920 Climbing Toronto Center
05:32PM 43.5333 -81.4500 255° West 410 472 27,500 1,200 Climbing Toronto Center
05:33PM 43.5000 -81.5833 251° West 410 472 28,000 240 Climbing Toronto Center
05:34PM 43.4667 -81.7500 255° West 410 472 28,000  Level Toronto Center
05:35PM 43.4500 -81.8833 260° West 400 460 28,000  Level Toronto Center
05:36PM 43.4000 -82.0167 243° Southwest 380 437 28,000  Level Toronto Center
05:37PM 43.3667 -82.1833 255° West 380 437 28,000  Level Toronto Center
05:38PM 43.3333 -82.3000 249° West 380 437 28,000  Level Toronto Center
05:39PM 43.3167 -82.4333 260° West 350 403 28,000  Level Toronto Center
05:39PM 43.3058 -82.5006 258° West 342 394 28,000  Level Cleveland Center
05:40PM 43.2772 -82.6183 252° West 330 380 28,000  Level Cleveland Center
05:41PM 43.2356 -82.7306 243° Southwest 346 398 28,000  Level Cleveland Center
05:42PM 43.1733 -82.8336 230° Southwest 353 406 28,000 -240 Level Cleveland Center
05:43PM 43.1114 -82.9350 230° Southwest 351 404 27,600 -1,020 Descending Cleveland Center
05:44PM 43.0531 -83.0353 231° Southwest 343 395 26,000 -780 Descending Cleveland Center
05:45PM 43.0331 -83.1797 259° West 323 372 26,000  Level Cleveland Center
05:46PM 43.0181 -83.3011 260° West 325 374 26,000  Level Cleveland Center
05:47PM 43.0050 -83.4411 263° West 366 421 26,000  Level Cleveland Center
05:49PM 42.9903 -83.5814 262° West 376 433 26,000  Level Cleveland Center
05:50PM 42.9761 -83.7194 262° West 371 427 26,000  Level Cleveland Center
05:51PM 42.9594 -83.8853 262° West 370 426 26,000  Level Cleveland Center
05:52PM 42.9453 -84.0203 262° West 365 420 26,000  Level Cleveland Center
05:53PM 42.9297 -84.1575 261° West 367 422 26,000  Level Cleveland Center
05:54PM 42.9158 -84.2933 262° West 366 421 26,000  Level Cleveland Center
05:55PM 42.9033 -84.4125 262° West 362 417 26,000  Level Chicago Center
05:56PM 42.9206 -84.5742 278° West 360 414 26,000  Level Chicago Center
05:57PM 42.8947 -84.7061 255° West 361 415 26,000  Level Chicago Center
05:58PM 42.8664 -84.8386 254° West 362 417 26,000  Level Chicago Center
06:03PM 42.7870 -85.4620 254° West 100 115 26,000  Level FlightAware
06:04PM 42.7830 -85.4880 258° West 100 115 26,000  Level FlightAware
06:04PM 42.7780 -85.5140 255° West 100 115 26,000  Level FlightAware
06:05PM 42.7750 -85.5320 257° West 100 115 26,000  Level FlightAware
06:05PM 42.7730 -85.5440 257° West 100 115 26,000 -540 Level FlightAware
06:06PM 42.7131 -85.9081 257° West 350 403 25,400 -1,620 Descending Chicago Center
06:07PM 42.6889 -86.0367 256° West 348 400 23,200 -1,920 Descending Chicago Center
06:13PM 42.5690 -86.7060 256° West 325 374 12,700 -1,860 Descending FlightAware
06:14PM 42.5510 -86.8140 257° West 316 364 11,100 -1,620 Descending FlightAware
06:14PM 42.5420 -86.8700 258° West 307 353 10,400 -480 Descending FlightAware
06:15PM 42.5250 -86.9780 258° West 307 353 10,400 -360 Level FlightAware
06:16PM 42.5170 -87.0440 261° West 307 353 9,900 -600 Descending FlightAware
06:16PM 42.5110 -87.0860 259° West 307 353 9,900 -360 Level FlightAware
06:17PM 42.4990 -87.1260 248° West 277 319 9,600 -660 Descending FlightAware
06:17PM 42.4880 -87.1670 250° West 277 319 9,400 -480 Descending FlightAware
06:18PM 42.4560 -87.2070 223° Southwest 277 319 9,100 -420 Descending FlightAware
06:18PM 42.4200 -87.2120 186° South 243 280 9,000 -240 Descending FlightAware
06:18PM 42.4110 -87.2120 180° South 307 353 9,000  Level FlightAware
06:19PM 42.3410 -87.2180 184° South 270 311 9,000  Level FlightAware
06:20PM 42.3140 -87.2210 185° South 290 334 9,000 -180 Level FlightAware
06:20PM 42.2880 -87.2240 185° South 275 316 8,900 -600 Descending FlightAware
06:20PM 42.2650 -87.2290 189° South 257 296 8,600 -360 Descending FlightAware
06:21PM 42.2270 -87.2410 193° South 257 296 8,600  Level FlightAware
06:21PM 42.2030 -87.2490 194° South 257 296 8,600  Level FlightAware
06:22PM 42.1680 -87.2600 193° South 257 296 8,600  Level FlightAware
06:22PM 42.1560 -87.2640 194° South 257 296 8,600 -1,860 Level FlightAware
06:23PM 42.0860 -87.2880 194° South 257 296 7,000 -600 Descending FlightAware
06:26PM 41.9830 -87.5030 237° Southwest 257 296 6,400 -360 Descending FlightAware
06:26PM 41.9830 -87.5350 270° West 257 296 5,900 -1,200 Descending FlightAware
06:27PM 41.9830 -87.5680 270° West 224 258 5,500 -660 Descending FlightAware
06:27PM 41.9830 -87.6180 270° West 228 262 5,200 -1,200 Descending FlightAware
06:29PM 41.9840 -87.7460 271° West 228 262 2,700 -1,200 Descending FlightAware
06:29PM 41.9840 -87.7800 270° West 228 262 2,700 -1,020 Level FlightAware
06:30PM 41.9844 -87.8225 270° West 186 214 1,700 -1,500 Descending Chicago Center
06:30PM 41.9833 -87.8500 267° West 137 158 1,200 -1,020 Descending Chicago TRACON
06:33PM 41.9667 -87.9000 206° Southwest  Level FlightAware Approximate